KTYS/TYS METAR and TAF weather

Enter ICAO airport designator
Station Type Date Time Source
KTYS METAR 2019/04/25 09:53 UTC NOAA

KTYS 250953Z 23006KT 10SM BKN120 17/12 A2988 RMK AO2 RAB09E34 SLP108 P0000 T01720117


Station Type Date Time Source
KTYS Decoded METAR 2019/04/25 09:53 UTC NOAA

MCGHEE TYSON AIRPORT, TN, United States (KTYS) 35-49N 083-59W 302M
Apr 25, 2019 - 05:53 AM EDT / 2019.04.25 0953 UTC
Wind: from the SW (230 degrees) at 7 MPH (6 KT):0
Visibility: 10 mile(s):0
Sky conditions: mostly cloudy
Precipitation last hour: A trace
Temperature: 63.0 F (17.2 C)
Dew Point: 53.1 F (11.7 C)
Relative Humidity: 70%
Pressure (altimeter): 29.88 in. Hg (1011 hPa)
ob: KTYS 250953Z 23006KT 10SM BKN120 17/12 A2988 RMK AO2 RAB09E34 SLP108 P0000 T01720117
cycle: 10

Station Type Date Time Source
KTYS TAF 2019/04/25 08:16 UTC NOAA

TAF
AMD KTYS 250814Z 2508/2606 22008KT P6SM SCT150 BKN250
FM251400 22010KT P6SM SCT040 BKN250
FM251800 22012G19KT P6SM BKN050 BKN150
FM252300 22014G21KT P6SM VCTS BKN035CB OVC060
FM260400 21013KT P6SM -SHRA OVC040

Example: see airport list